Time;durP1;ratioP1;P1;durP2;ratioP2;P2;SDS_P1;SDS_P2;PMS_P1;PMS_P2;Temp;Humidity;BMP_temperature;BMP_pressure;BME280_temperature;BME280_humidity;BME280_pressure;Samples;Min_cycle;Max_cycle;Signal;HPM_P1;HPM_P2
2022/11/12 00:00:40;;;;;;;13.43;11.77;;;;;;;4.78;100.00;103073.59;5048403;28;20037;-65
2022/11/12 00:03:06;;;;;;;12.43;11.13;;;;;;;4.73;100.00;103069.56;5049723;28;20025;-65
2022/11/12 00:05:32;;;;;;;13.30;12.07;;;;;;;4.69;100.00;103072.56;5047155;28;20104;-64
2022/11/12 00:07:58;;;;;;;13.48;12.13;;;;;;;4.69;100.00;103078.00;5047194;28;20392;-64
2022/11/12 00:10:24;;;;;;;12.40;11.30;;;;;;;4.67;100.00;103076.44;5047454;28;20079;-64
2022/11/12 00:12:49;;;;;;;12.25;11.02;;;;;;;4.60;100.00;103081.53;5046190;28;20037;-66
2022/11/12 00:15:15;;;;;;;12.30;11.20;;;;;;;4.57;100.00;103076.41;5049005;28;20045;-65
2022/11/12 00:17:40;;;;;;;12.60;11.40;;;;;;;4.54;100.00;103089.41;5049541;28;20432;-64
2022/11/12 00:20:06;;;;;;;11.82;10.68;;;;;;;4.48;100.00;103085.38;5048995;28;20056;-65
2022/11/12 00:22:32;;;;;;;17.25;15.65;;;;;;;4.51;100.00;103087.84;5052953;28;20059;-64
2022/11/12 00:24:57;;;;;;;16.92;15.32;;;;;;;4.48;100.00;103089.94;5047472;28;20025;-65
2022/11/12 00:27:23;;;;;;;18.02;16.23;;;;;;;4.50;100.00;103083.38;5049659;28;20090;-64
2022/11/12 00:29:48;;;;;;;16.67;15.18;;;;;;;4.50;100.00;103090.66;5047173;28;20116;-64
2022/11/12 00:32:14;;;;;;;16.83;15.13;;;;;;;4.44;100.00;103097.50;5049152;28;20043;-64
2022/11/12 00:34:39;;;;;;;16.20;14.73;;;;;;;4.43;100.00;103093.94;5048079;28;20047;-65
2022/11/12 00:37:05;;;;;;;16.58;14.98;;;;;;;4.45;100.00;103090.22;5047837;28;20025;-65
2022/11/12 00:39:30;;;;;;;17.30;15.80;;;;;;;4.48;100.00;103093.53;5045875;28;20037;-64
2022/11/12 00:41:55;;;;;;;16.92;15.38;;;;;;;4.47;100.00;103088.22;5047939;28;20029;-64
2022/11/12 00:44:21;;;;;;;16.77;15.07;;;;;;;4.49;100.00;103106.13;5048499;28;20068;-66
2022/11/12 00:46:46;;;;;;;16.88;15.27;;;;;;;4.54;100.00;103092.13;5048463;28;20029;-64
2022/11/12 00:49:12;;;;;;;16.65;15.02;;;;;;;4.53;100.00;103085.81;5048567;28;20029;-64
2022/11/12 00:51:38;;;;;;;15.48;14.07;;;;;;;4.52;100.00;103089.56;5047891;28;20521;-65
2022/11/12 00:54:03;;;;;;;16.90;15.30;;;;;;;4.49;100.00;103081.66;5047505;28;20029;-64
2022/11/12 00:56:29;;;;;;;15.20;13.70;;;;;;;4.46;100.00;103087.38;5047730;28;20113;-65
2022/11/12 00:58:54;;;;;;;14.88;13.48;;;;;;;4.42;100.00;103083.19;5046599;28;20119;-65
2022/11/12 01:01:20;;;;;;;13.57;12.27;;;;;;;4.37;100.00;103088.19;5048099;28;20047;-66
2022/11/12 01:03:45;;;;;;;14.40;12.90;;;;;;;4.33;100.00;103092.16;5050136;28;20025;-64
2022/11/12 01:06:13;;;;;;;13.90;12.60;;;;;;;4.28;100.00;103094.44;5046761;28;20417;-65
2022/11/12 01:08:39;;;;;;;14.07;12.75;;;;;;;4.27;100.00;103092.72;5047017;28;20162;-65
2022/11/12 01:11:13;;;;;;;13.65;12.35;;;;;;;4.25;100.00;103089.25;5046926;28;20112;-64
2022/11/12 01:13:41;;;;;;;13.95;12.50;;;;;;;4.24;100.00;103082.94;5048146;28;20111;-65
2022/11/12 01:16:12;;;;;;;13.50;12.23;;;;;;;4.23;100.00;103091.25;5047902;28;20788;-64
2022/11/12 01:18:38;;;;;;;13.77;12.38;;;;;;;4.22;100.00;103084.94;5046383;28;20041;-64
2022/11/12 01:21:05;;;;;;;13.02;11.73;;;;;;;4.18;100.00;103082.63;5046431;28;20071;-65
2022/11/12 01:23:33;;;;;;;13.18;11.88;;;;;;;4.20;100.00;103086.91;5046440;28;20037;-65
2022/11/12 01:26:03;;;;;;;12.97;11.73;;;;;;;4.25;100.00;103081.09;5046610;28;20026;-64
2022/11/12 01:28:28;;;;;;;13.15;11.85;;;;;;;4.23;100.00;103073.06;5048216;28;20033;-64
2022/11/12 01:30:53;;;;;;;12.10;10.90;;;;;;;4.21;100.00;103076.91;5048060;28;20029;-64
2022/11/12 01:33:19;;;;;;;12.77;11.48;;;;;;;4.15;100.00;103081.03;5046853;28;20628;-64
2022/11/12 01:35:44;;;;;;;12.27;11.02;;;;;;;4.13;100.00;103085.75;5047175;28;20032;-65
2022/11/12 01:38:09;;;;;;;11.95;10.82;;;;;;;4.12;100.00;103071.28;5047504;28;20388;-64
2022/11/12 01:40:35;;;;;;;11.70;10.50;;;;;;;4.11;100.00;103074.16;5045842;28;20503;-65
2022/11/12 01:43:00;;;;;;;12.70;11.40;;;;;;;4.10;100.00;103073.25;5047536;28;20031;-64
2022/11/12 01:45:25;;;;;;;12.68;11.48;;;;;;;4.08;100.00;103077.97;5047660;28;20112;-65
2022/11/12 01:47:51;;;;;;;11.85;10.70;;;;;;;4.00;100.00;103069.63;5045973;28;20025;-65
2022/11/12 01:50:26;;;;;;;12.40;11.10;;;;;;;4.00;100.00;103069.63;5047939;28;20059;-65
2022/11/12 01:52:56;;;;;;;12.27;11.02;;;;;;;3.96;100.00;103068.19;5048194;28;20048;-64
2022/11/12 01:55:27;;;;;;;12.10;10.90;;;;;;;3.95;100.00;103071.88;5048301;28;20025;-64
2022/11/12 01:58:09;;;;;;;11.70;10.60;;;;;;;3.95;100.00;103071.88;5045530;28;20031;-64
2022/11/12 02:00:35;;;;;;;11.35;10.25;;;;;;;3.94;100.00;103066.56;5046238;28;20037;-64
2022/11/12 02:03:03;;;;;;;10.63;9.63;;;;;;;3.93;100.00;103068.44;5103540;22;20054;-65
2022/11/12 02:05:30;;;;;;;11.68;10.57;;;;;;;3.91;100.00;103070.44;5095024;28;20040;-64
2022/11/12 02:07:58;;;;;;;11.32;10.23;;;;;;;3.89;100.00;103062.41;5084935;28;20111;-65
2022/11/12 02:10:24;;;;;;;11.95;10.80;;;;;;;3.86;100.00;103067.25;5086502;28;20032;-65
2022/11/12 02:15:37;;;;;;;11.32;10.15;;;;;;;3.84;100.00;103063.78;5086098;28;20043;-64
2022/11/12 02:18:02;;;;;;;10.95;9.85;;;;;;;3.80;100.00;103062.31;5085731;28;20123;-64
2022/11/12 02:20:32;;;;;;;10.25;9.05;;;;;;;3.78;100.00;103058.88;5086784;28;20592;-65
2022/11/12 02:22:57;;;;;;;11.98;9.70;;;;;;;3.79;100.00;103056.03;5085993;28;20026;-65
2022/11/12 02:25:23;;;;;;;9.38;8.48;;;;;;;3.81;100.00;103055.91;5068639;28;20036;-64
2022/11/12 02:27:51;;;;;;;10.43;9.30;;;;;;;3.81;100.00;103058.63;5074476;28;20431;-66
2022/11/12 02:30:34;;;;;;;10.20;9.20;;;;;;;3.86;100.00;103057.25;5063693;28;20035;-64
2022/11/12 02:32:59;;;;;;;9.93;8.93;;;;;;;3.78;100.00;103062.47;5086468;28;20111;-65
2022/11/12 02:35:24;;;;;;;9.63;8.73;;;;;;;3.79;100.00;103066.91;5086343;28;20111;-65
2022/11/12 02:37:49;;;;;;;9.80;8.90;;;;;;;3.77;100.00;103068.03;5085523;28;20121;-65
2022/11/12 02:40:15;;;;;;;9.68;8.63;;;;;;;3.75;100.00;103070.00;5086515;28;20024;-65
2022/11/12 02:42:40;;;;;;;9.23;8.32;;;;;;;3.72;100.00;103067.56;5087292;28;20459;-65
2022/11/12 02:45:06;;;;;;;9.25;8.35;;;;;;;3.73;100.00;103061.13;5085978;28;20393;-64
2022/11/12 02:47:31;;;;;;;9.30;8.40;;;;;;;3.73;100.00;103064.72;5081912;28;20047;-65
2022/11/12 02:49:56;;;;;;;8.65;7.75;;;;;;;3.71;100.00;103063.13;5085253;28;20374;-65
2022/11/12 02:52:22;;;;;;;8.85;7.95;;;;;;;3.70;100.00;103061.38;5076549;28;20070;-65
2022/11/12 02:54:47;;;;;;;8.98;8.07;;;;;;;3.67;100.00;103058.94;5066724;28;20402;-65
2022/11/12 02:57:12;;;;;;;8.30;7.50;;;;;;;3.67;100.00;103054.38;5081118;28;20032;-65
2022/11/12 02:59:37;;;;;;;8.77;7.72;;;;;;;3.68;100.00;103052.50;5066951;28;20047;-64
2022/11/12 03:02:03;;;;;;;8.25;7.32;;;;;;;3.65;100.00;103048.22;5085774;28;20043;-65
2022/11/12 03:04:28;;;;;;;8.30;7.20;;;;;;;3.63;100.00;103040.19;5086618;28;20044;-65
2022/11/12 03:06:53;;;;;;;8.35;7.55;;;;;;;3.66;100.00;103032.78;5085500;28;20027;-65
2022/11/12 03:09:18;;;;;;;8.25;7.45;;;;;;;3.67;100.00;103042.66;5086527;28;20060;-64
2022/11/12 03:11:44;;;;;;;9.43;7.25;;;;;;;3.65;100.00;103042.78;5076594;28;20420;-64
2022/11/12 03:14:09;;;;;;;7.80;7.00;;;;;;;3.64;100.00;103047.34;5079369;28;20071;-65
2022/11/12 03:16:34;;;;;;;8.40;7.60;;;;;;;3.66;100.00;103046.38;5086736;28;20061;-64
2022/11/12 03:18:59;;;;;;;8.77;7.88;;;;;;;3.66;100.00;103054.50;5086974;28;20025;-64
2022/11/12 03:21:25;;;;;;;8.80;7.90;;;;;;;3.60;100.00;103050.47;5085884;28;20043;-65
2022/11/12 03:23:50;;;;;;;8.85;7.95;;;;;;;3.58;100.00;103047.84;5085638;28;20673;-65
2022/11/12 03:26:15;;;;;;;9.13;8.23;;;;;;;3.56;100.00;103044.44;5067938;28;20032;-64
2022/11/12 03:28:41;;;;;;;8.20;7.40;;;;;;;3.57;100.00;103050.72;5086177;28;20040;-65
2022/11/12 03:31:07;;;;;;;7.93;7.13;;;;;;;3.53;100.00;103044.69;5085445;28;20062;-65
2022/11/12 03:33:32;;;;;;;8.73;7.82;;;;;;;3.53;100.00;103055.53;5084593;28;20032;-65
2022/11/12 03:35:58;;;;;;;8.65;7.75;;;;;;;3.56;100.00;103055.28;5085897;28;20085;-67
2022/11/12 03:38:23;;;;;;;8.75;7.88;;;;;;;3.56;100.00;103049.00;5080326;28;20025;-65
2022/11/12 03:40:48;;;;;;;9.02;8.13;;;;;;;3.56;100.00;103055.28;5071360;28;20036;-65
2022/11/12 03:43:13;;;;;;;8.80;7.50;;;;;;;3.57;100.00;103054.28;5079512;28;20024;-65
2022/11/12 03:45:39;;;;;;;8.73;7.82;;;;;;;3.55;100.00;103064.44;5085869;28;20024;-65
2022/11/12 03:48:04;;;;;;;9.65;8.65;;;;;;;3.57;100.00;103056.16;5086147;28;20565;-65
2022/11/12 03:50:30;;;;;;;8.98;8.10;;;;;;;3.61;100.00;103052.19;5086370;28;20635;-65
2022/11/12 03:52:57;;;;;;;9.20;8.30;;;;;;;3.64;100.00;103060.91;5085437;28;20020;-65
2022/11/12 03:55:25;;;;;;;9.17;7.87;;;;;;;3.61;100.00;103057.63;5085356;28;20517;-65
2022/11/12 03:57:51;;;;;;;9.30;7.80;;;;;;;3.60;100.00;103064.06;5086150;28;20342;-65
2022/11/12 04:00:19;;;;;;;8.82;7.93;;;;;;;3.58;100.00;103058.72;5085621;28;20024;-65
2022/11/12 04:02:44;;;;;;;8.83;7.97;;;;;;;3.56;100.00;103063.44;5085542;28;20071;-65
2022/11/12 04:08:37;;;;;;;8.70;7.45;;;;;;;3.59;100.00;103060.44;5082726;28;20097;-65
2022/11/12 04:11:07;;;;;;;8.65;7.75;;;;;;;3.56;100.00;103058.00;5065843;28;20090;-66
2022/11/12 04:13:33;;;;;;;8.60;7.70;;;;;;;3.57;100.00;103050.72;5082512;28;20477;-65
2022/11/12 04:21:50;;;;;;;8.70;7.43;;;;;;;3.58;100.00;103058.72;5085811;28;20523;-65
2022/11/12 04:27:32;;;;;;;7.20;6.50;;;;;;;3.51;100.00;103045.81;5062410;28;20032;-65
2022/11/12 04:30:17;;;;;;;7.88;6.60;;;;;;;3.43;100.00;103037.44;5074130;28;20038;-65
2022/11/12 04:32:53;;;;;;;7.47;6.78;;;;;;;3.41;100.00;103034.00;5081000;28;20041;-65
2022/11/12 04:35:20;;;;;;;7.50;6.75;;;;;;;3.41;100.00;103028.56;5073385;28;20059;-65
2022/11/12 04:37:46;;;;;;;7.50;6.80;;;;;;;3.35;100.00;103038.09;5085122;28;20059;-65
2022/11/12 04:45:54;;;;;;;7.43;6.53;;;;;;;3.30;100.00;103034.91;5085671;28;20043;-65
2022/11/12 04:48:20;;;;;;;7.90;7.00;;;;;;;3.26;100.00;103033.44;5088631;28;20024;-65
2022/11/12 04:50:49;;;;;;;7.88;7.07;;;;;;;3.26;100.00;103042.44;5088474;28;20103;-65
2022/11/12 04:53:14;;;;;;;8.05;7.25;;;;;;;3.26;100.00;103026.16;5089021;28;20056;-65
2022/11/12 04:55:40;;;;;;;8.10;6.68;;;;;;;3.20;100.00;103014.97;5089524;28;20070;-66
2022/11/12 04:58:05;;;;;;;8.45;7.03;;;;;;;3.21;100.00;103022.09;5088127;28;20067;-66
2022/11/12 05:00:31;;;;;;;8.05;7.05;;;;;;;3.20;100.00;103017.69;5087587;28;20047;-66
2022/11/12 05:02:56;;;;;;;8.43;6.95;;;;;;;3.21;100.00;103022.09;5071674;28;20161;-65
2022/11/12 05:05:22;;;;;;;7.72;6.93;;;;;;;3.21;100.00;103022.97;5087803;28;20074;-65
2022/11/12 05:07:47;;;;;;;7.78;6.82;;;;;;;3.17;100.00;103016.06;5088110;28;20024;-65
2022/11/12 05:10:12;;;;;;;7.88;6.60;;;;;;;3.18;100.00;103012.34;5088468;28;20078;-65
2022/11/12 05:12:38;;;;;;;7.88;7.07;;;;;;;3.20;100.00;103020.38;5088929;28;20023;-65
2022/11/12 05:15:04;;;;;;;7.95;7.10;;;;;;;3.21;100.00;103012.09;5087414;28;20067;-65
2022/11/12 05:17:30;;;;;;;7.15;6.45;;;;;;;3.19;100.00;103013.22;5088212;28;20036;-65
2022/11/12 05:19:55;;;;;;;7.30;6.20;;;;;;;3.21;100.00;103024.81;5087246;28;20024;-65
2022/11/12 05:22:20;;;;;;;7.35;6.35;;;;;;;3.18;100.00;103022.34;5088574;28;20028;-66
2022/11/12 05:24:45;;;;;;;7.60;6.80;;;;;;;3.17;100.00;103012.50;5070966;28;20040;-65
2022/11/12 05:27:13;;;;;;;7.28;6.57;;;;;;;3.16;100.00;103008.91;5050431;28;20501;-66
2022/11/12 05:29:39;;;;;;;8.35;6.82;;;;;;;3.16;100.00;102999.91;5077576;28;20040;-65
2022/11/12 05:32:06;;;;;;;7.82;7.03;;;;;;;3.14;100.00;103000.00;5085629;28;20125;-65
2022/11/12 05:34:32;;;;;;;8.45;6.88;;;;;;;3.15;100.00;103000.91;5087357;28;20348;-65
2022/11/12 05:36:57;;;;;;;6.97;6.28;;;;;;;3.18;100.00;102998.78;5088669;28;20088;-65
2022/11/12 05:39:22;;;;;;;7.28;6.57;;;;;;;3.18;100.00;102997.91;5087394;28;20062;-65
2022/11/12 05:41:48;;;;;;;6.95;6.25;;;;;;;3.18;100.00;103000.63;5088293;28;20383;-65
2022/11/12 05:44:13;;;;;;;7.18;6.45;;;;;;;3.15;100.00;102999.06;5068980;28;20386;-65
2022/11/12 05:46:38;;;;;;;7.15;6.43;;;;;;;3.12;100.00;102997.44;5088161;28;20028;-65
2022/11/12 05:49:04;;;;;;;9.38;6.90;;;;;;;3.13;100.00;102993.72;5081926;28;20225;-65
2022/11/12 05:51:29;;;;;;;7.63;6.45;;;;;;;3.09;100.00;103000.44;5067855;28;20776;-65
2022/11/12 05:53:54;;;;;;;7.60;6.80;;;;;;;3.09;100.00;102985.97;5067050;28;20025;-65
2022/11/12 05:56:20;;;;;;;7.97;6.78;;;;;;;3.09;100.00;102999.53;5081294;28;20359;-66
2022/11/12 05:58:45;;;;;;;7.13;6.43;;;;;;;3.05;100.00;103000.81;5083968;28;20080;-65
2022/11/12 06:01:10;;;;;;;7.65;6.40;;;;;;;3.05;100.00;103004.38;5086499;28;20154;-66
2022/11/12 06:03:36;;;;;;;7.43;6.63;;;;;;;3.08;100.00;103009.53;5067849;28;20044;-66
2022/11/12 06:06:01;;;;;;;7.55;6.40;;;;;;;3.11;100.00;103001.16;5066903;28;20020;-65
2022/11/12 06:08:27;;;;;;;7.28;6.55;;;;;;;3.12;100.00;103008.31;5086163;28;20043;-65
2022/11/12 06:10:53;;;;;;;7.70;6.55;;;;;;;3.12;100.00;103007.44;5088463;28;20114;-65
2022/11/12 06:13:20;;;;;;;6.72;6.03;;;;;;;3.12;100.00;103007.44;5087336;28;20024;-65
2022/11/12 06:15:45;;;;;;;6.85;6.13;;;;;;;3.11;100.00;103003.00;5083508;28;20112;-65
2022/11/12 06:18:10;;;;;;;8.30;6.75;;;;;;;3.12;100.00;103011.03;5087114;28;20115;-66
2022/11/12 06:20:36;;;;;;;8.13;6.28;;;;;;;3.13;100.00;103009.16;5084168;28;20020;-65
2022/11/12 06:23:01;;;;;;;7.65;6.85;;;;;;;3.11;100.00;103009.31;5086944;28;20059;-65
2022/11/12 06:25:27;;;;;;;7.47;6.72;;;;;;;3.08;100.00;103006.81;5085041;28;20074;-65
2022/11/12 06:27:53;;;;;;;7.35;6.60;;;;;;;3.08;100.00;103011.41;5086121;28;20032;-65
2022/11/12 06:30:18;;;;;;;7.53;6.40;;;;;;;3.06;100.00;103007.97;5082600;28;20035;-66
2022/11/12 06:32:48;;;;;;;7.45;6.22;;;;;;;3.04;100.00;103005.38;5080245;28;20035;-66
2022/11/12 06:35:14;;;;;;;7.88;6.40;;;;;;;3.05;100.00;103014.38;5083118;28;20059;-66
2022/11/12 06:37:40;;;;;;;7.50;6.53;;;;;;;3.02;100.00;103023.63;5084987;28;20028;-66
2022/11/12 06:40:06;;;;;;;7.03;6.20;;;;;;;3.02;100.00;103018.22;5086921;28;20085;-65
2022/11/12 06:42:31;;;;;;;7.80;6.70;;;;;;;3.02;100.00;103020.06;5086023;28;20363;-65
2022/11/12 06:44:56;;;;;;;8.25;6.43;;;;;;;3.01;100.00;103016.50;5082768;28;20035;-65
2022/11/12 06:47:22;;;;;;;7.30;6.45;;;;;;;2.99;100.00;103013.06;5083945;28;20024;-66
2022/11/12 06:49:47;;;;;;;7.05;6.15;;;;;;;3.01;100.00;103011.06;5102137;28;20028;-66
2022/11/12 06:52:14;;;;;;;7.30;6.18;;;;;;;3.05;100.00;103017.97;5100390;28;20044;-65
2022/11/12 06:54:39;;;;;;;7.10;5.90;;;;;;;3.04;100.00;103015.34;5095676;28;21061;-65
2022/11/12 06:57:04;;;;;;;7.47;6.15;;;;;;;3.03;100.00;103019.94;5067441;28;20054;-65
2022/11/12 06:59:29;;;;;;;6.68;5.65;;;;;;;3.05;100.00;103022.53;5085677;28;20039;-66
2022/11/12 07:01:55;;;;;;;6.88;6.18;;;;;;;3.04;100.00;103018.97;5086372;28;20028;-65
2022/11/12 07:04:20;;;;;;;7.03;5.75;;;;;;;3.05;100.00;103028.81;5084829;28;20040;-65
2022/11/12 07:06:45;;;;;;;6.60;5.90;;;;;;;3.08;100.00;103027.69;5084303;28;20036;-64
2022/11/12 07:09:10;;;;;;;6.35;5.70;;;;;;;3.10;100.00;103028.44;5082296;28;20178;-64
2022/11/12 07:11:36;;;;;;;7.22;5.47;;;;;;;3.12;100.00;103027.31;5086883;28;20680;-64
2022/11/12 07:14:05;;;;;;;7.25;6.22;;;;;;;3.14;100.00;103032.59;5085543;28;20396;-64
2022/11/12 07:16:30;;;;;;;6.95;6.13;;;;;;;3.19;100.00;103029.50;5086720;28;20537;-67
2022/11/12 07:18:55;;;;;;;6.88;6.05;;;;;;;3.24;100.00;103027.25;5085294;28;20081;-64
2022/11/12 07:21:20;;;;;;;6.63;5.85;;;;;;;3.27;100.00;103027.00;5085857;28;20040;-64
2022/11/12 07:23:46;;;;;;;6.78;5.55;;;;;;;3.33;100.00;103024.63;5084984;28;20050;-64
2022/11/12 07:26:22;;;;;;;8.00;6.15;;;;;;;3.41;100.00;103023.13;5086416;28;20056;-64
2022/11/12 07:28:49;;;;;;;6.50;5.15;;;;;;;3.46;100.00;103024.47;5086272;28;20024;-64
2022/11/12 07:31:16;;;;;;;6.67;5.90;;;;;;;3.51;100.00;103024.09;5083629;28;20378;-64
2022/11/12 07:33:43;;;;;;;6.80;5.80;;;;;;;3.53;100.00;103025.66;5084950;28;20032;-65
2022/11/12 07:36:13;;;;;;;6.72;5.70;;;;;;;3.58;100.00;103031.56;5080905;28;20382;-65
2022/11/12 07:38:40;;;;;;;6.95;5.85;;;;;;;3.60;100.00;103035.03;5086317;28;20809;-65
2022/11/12 07:41:09;;;;;;;6.68;5.70;;;;;;;3.68;100.00;103028.06;5085300;28;20031;-64
2022/11/12 07:43:35;;;;;;;6.82;6.07;;;;;;;3.73;100.00;103033.97;5084946;28;20034;-65
2022/11/12 07:46:13;;;;;;;6.35;5.75;;;;;;;3.78;100.00;103042.56;5086465;28;20154;-65
2022/11/12 07:48:39;;;;;;;6.70;5.57;;;;;;;3.84;100.00;103040.19;5084008;28;20127;-65
2022/11/12 07:51:12;;;;;;;6.40;5.50;;;;;;;3.89;100.00;103042.50;5086181;28;20032;-64
2022/11/12 07:53:38;;;;;;;7.32;6.13;;;;;;;3.97;100.00;103041.84;5085038;28;20413;-65
2022/11/12 07:56:03;;;;;;;6.20;5.38;;;;;;;4.04;100.00;103046.59;5086627;28;20028;-65
2022/11/12 07:58:30;;;;;;;5.97;5.38;;;;;;;4.18;100.00;103039.97;5083409;28;20059;-65
2022/11/12 08:00:56;;;;;;;7.03;6.32;;;;;;;4.30;100.00;103043.44;5086186;28;20032;-64
2022/11/12 08:03:22;;;;;;;6.93;6.10;;;;;;;4.40;100.00;103047.09;5086047;28;20059;-65
2022/11/12 08:05:47;;;;;;;6.78;6.07;;;;;;;4.52;100.00;103046.00;5086787;28;20343;-64
2022/11/12 08:08:12;;;;;;;7.50;6.22;;;;;;;4.65;100.00;103054.78;5065520;28;20035;-65
2022/11/12 08:10:38;;;;;;;7.00;6.30;;;;;;;4.77;100.00;103063.72;5086128;28;20035;-66
2022/11/12 08:13:04;;;;;;;6.80;6.07;;;;;;;4.88;100.00;103060.88;5086334;28;20115;-65
2022/11/12 08:15:30;;;;;;;7.65;6.50;;;;;;;5.17;100.00;103050.06;5084385;28;20519;-65
2022/11/12 08:17:55;;;;;;;7.10;6.05;;;;;;;5.62;100.00;103062.25;5083236;28;20032;-65
2022/11/12 08:20:21;;;;;;;6.97;5.78;;;;;;;6.15;100.00;103065.41;5076543;28;20032;-65
2022/11/12 08:22:47;;;;;;;7.45;6.28;;;;;;;6.84;100.00;103057.78;5081787;28;20032;-65
2022/11/12 08:25:13;;;;;;;8.30;5.35;;;;;;;7.44;99.03;103049.91;5090030;28;20103;-66
2022/11/12 08:27:38;;;;;;;6.20;5.57;;;;;;;7.69;95.74;103054.59;5090073;28;20118;-65
2022/11/12 08:30:04;;;;;;;5.97;5.32;;;;;;;7.85;94.31;103062.06;5088618;28;20759;-65
2022/11/12 08:32:30;;;;;;;6.10;4.78;;;;;;;7.92;92.90;103060.44;5089034;28;20051;-65
2022/11/12 08:34:55;;;;;;;7.15;5.35;;;;;;;7.95;94.10;103054.63;5088849;28;20511;-65
2022/11/12 08:37:20;;;;;;;5.97;5.32;;;;;;;8.15;93.55;103060.75;5088690;28;20028;-65
2022/11/12 08:39:46;;;;;;;5.45;4.75;;;;;;;8.57;90.92;103055.44;5088397;28;20056;-65
2022/11/12 08:42:11;;;;;;;6.28;5.32;;;;;;;8.93;89.76;103049.75;5088902;28;20051;-66
2022/11/12 08:44:37;;;;;;;5.85;5.18;;;;;;;9.20;87.73;103056.00;5086101;28;20025;-66
2022/11/12 08:47:02;;;;;;;5.97;4.78;;;;;;;9.64;86.96;103053.84;5089143;28;20130;-66
2022/11/12 08:49:28;;;;;;;5.53;4.60;;;;;;;10.34;83.36;103054.16;5086331;28;20024;-66
2022/11/12 08:51:53;;;;;;;6.53;4.18;;;;;;;11.62;79.53;103054.72;5086616;28;20127;-66
2022/11/12 08:54:19;;;;;;;5.50;4.32;;;;;;;13.08;72.39;103056.16;5086414;28;20028;-66
2022/11/12 08:56:44;;;;;;;4.80;4.20;;;;;;;13.98;67.13;103052.84;5087208;28;20611;-66
2022/11/12 08:59:09;;;;;;;5.38;4.05;;;;;;;14.33;64.92;103063.97;5067507;28;20115;-66
2022/11/12 09:01:34;;;;;;;5.18;4.10;;;;;;;14.74;62.95;103061.28;5086036;28;20081;-66
2022/11/12 09:04:00;;;;;;;5.57;4.20;;;;;;;14.91;60.74;103056.28;5086410;28;20382;-66
2022/11/12 09:06:25;;;;;;;4.35;3.70;;;;;;;15.47;60.44;103056.03;5086157;28;20137;-66
2022/11/12 09:08:50;;;;;;;5.57;4.15;;;;;;;16.23;56.96;103056.56;5085792;28;20028;-66
2022/11/12 09:11:16;;;;;;;5.38;3.47;;;;;;;16.87;55.33;103057.72;5087033;28;20455;-66
2022/11/12 09:13:42;;;;;;;5.68;3.85;;;;;;;17.67;53.10;103054.53;5085422;28;20024;-66
2022/11/12 09:16:09;;;;;;;5.30;4.10;;;;;;;18.26;51.11;103059.63;5086504;28;20384;-66
2022/11/12 09:18:35;;;;;;;3.63;3.30;;;;;;;18.11;48.95;103057.19;5085591;28;20160;-66
2022/11/12 09:21:09;;;;;;;4.57;3.53;;;;;;;17.38;49.27;103059.59;5086193;28;20126;-66
2022/11/12 09:23:35;;;;;;;4.60;3.65;;;;;;;17.35;51.75;103060.91;5085341;28;20438;-66
2022/11/12 09:26:00;;;;;;;4.15;3.55;;;;;;;17.72;50.89;103055.56;5085894;28;20012;-66
2022/11/12 09:28:26;;;;;;;5.63;4.10;;;;;;;17.44;51.73;103064.28;5084845;28;20047;-66
2022/11/12 09:30:52;;;;;;;5.32;3.70;;;;;;;18.05;50.79;103062.81;5085922;28;20020;-66
2022/11/12 09:33:38;;;;;;;5.80;3.67;;;;;;;19.22;53.37;103069.28;5085168;28;20139;-65
2022/11/12 09:36:04;;;;;;;4.15;3.28;;;;;;;19.54;47.37;103066.25;5085889;28;20053;-66
2022/11/12 09:38:30;;;;;;;4.53;3.25;;;;;;;20.11;45.42;103058.28;5085094;28;20021;-66
2022/11/12 09:41:21;;;;;;;3.83;2.97;;;;;;;20.48;45.31;103047.81;5085900;28;20427;-66
2022/11/12 09:43:52;;;;;;;3.80;3.30;;;;;;;20.04;45.61;103054.78;5085229;28;20054;-66
2022/11/12 09:46:45;;;;;;;4.43;3.03;;;;;;;19.81;49.26;103058.38;5086175;28;20316;-66
2022/11/12 09:49:18;;;;;;;4.28;3.53;;;;;;;19.46;46.95;103064.66;5085363;28;20120;-67
2022/11/12 09:51:58;;;;;;;4.63;3.10;;;;;;;19.46;48.30;103064.66;5101586;28;20028;-65
2022/11/12 09:54:26;;;;;;;4.53;3.05;;;;;;;19.24;46.81;103063.47;5085161;28;20020;-66
2022/11/12 09:56:52;;;;;;;;;;;;;;;20.13;51.61;103059.78;5085972;28;20028;-66
2022/11/12 09:59:18;;;;;;;3.15;2.85;;;;;;;19.78;45.92;103047.72;5083563;28;20384;-65
2022/11/12 10:02:11;;;;;;;3.78;3.05;;;;;;;19.77;49.88;103054.34;5085863;28;20031;-65
2022/11/12 10:05:01;;;;;;;5.00;3.08;;;;;;;20.04;47.85;103058.41;5085233;28;20036;-65
2022/11/12 10:08:01;;;;;;;4.40;2.70;;;;;;;20.06;47.14;103047.00;5084082;28;20028;-65
2022/11/12 10:10:33;;;;;;;3.97;3.10;;;;;;;20.82;43.18;103048.81;5084821;28;20020;-66
2022/11/12 10:13:21;;;;;;;3.10;2.80;;;;;;;21.61;46.50;103043.44;5084205;28;20036;-66
2022/11/12 10:19:20;;;;;;;3.42;2.70;;;;;;;22.86;38.86;103043.19;5085091;28;20485;-66
2022/11/12 10:21:52;;;;;;;3.67;2.80;;;;;;;23.15;38.61;103041.91;5085544;28;20060;-65
2022/11/12 10:24:20;;;;;;;3.25;2.95;;;;;;;23.03;38.35;103041.19;5084421;28;20027;-66
2022/11/12 10:26:47;;;;;;;3.65;3.00;;;;;;;22.82;38.38;103037.25;5085517;28;20429;-65
2022/11/12 10:29:30;;;;;;;3.33;3.00;;;;;;;23.09;41.63;103039.31;5083708;28;20034;-66
2022/11/12 10:31:55;;;;;;;4.03;2.92;;;;;;;23.17;38.72;103025.69;5084970;28;20429;-66
2022/11/12 10:34:23;;;;;;;3.67;2.83;;;;;;;23.69;37.84;103032.69;5083303;28;20016;-65
2022/11/12 10:37:18;;;;;;;3.72;3.10;;;;;;;24.13;39.81;103024.06;5085832;28;20047;-65
2022/11/12 10:39:46;;;;;;;3.08;2.70;;;;;;;24.36;36.62;103022.84;5073602;28;20428;-66
2022/11/12 10:42:17;;;;;;;3.47;2.95;;;;;;;24.07;38.32;103021.22;5084874;28;20032;-65
2022/11/12 10:44:43;;;;;;;3.88;3.30;;;;;;;23.77;39.64;103024.63;5083172;28;20024;-65
2022/11/12 10:47:29;;;;;;;4.75;3.28;;;;;;;23.99;41.11;103020.88;5084785;28;20047;-65
2022/11/12 10:50:03;;;;;;;3.42;2.72;;;;;;;23.88;39.22;103013.50;5084232;28;20063;-66
2022/11/12 10:52:29;;;;;;;4.97;3.47;;;;;;;23.67;37.91;103010.53;5083902;28;20132;-65
2022/11/12 10:55:15;;;;;;;3.97;3.25;;;;;;;23.98;38.86;103007.97;5084691;28;20169;-65
2022/11/12 10:57:41;;;;;;;4.60;3.15;;;;;;;24.18;37.04;103007.25;5084028;28;20119;-66
2022/11/12 11:00:12;;;;;;;3.35;2.90;;;;;;;24.08;38.81;103008.03;5083964;28;20103;-65
2022/11/12 11:02:50;;;;;;;4.45;3.97;;;;;;;23.70;39.70;103007.16;5083715;28;20494;-66
2022/11/12 11:05:28;;;;;;;4.57;4.18;;;;;;;23.40;40.36;102993.66;5084673;28;20028;-65
2022/11/12 11:07:53;;;;;;;;;;;;;;;24.17;42.04;102999.94;5083949;28;20099;-66
2022/11/12 11:10:33;;;;;;;3.93;3.07;;;;;;;23.95;39.55;102997.25;5084295;28;20011;-66
2022/11/12 11:13:15;;;;;;;2.95;2.75;;;;;;;24.14;40.06;102992.91;5083568;28;20388;-66
2022/11/12 11:15:57;;;;;;;4.35;3.03;;;;;;;24.34;40.28;102995.00;5084305;28;20445;-66
2022/11/12 11:18:22;;;;;;;3.10;2.70;;;;;;;23.88;36.77;102991.88;5083496;28;20327;-66
2022/11/12 11:20:58;;;;;;;3.00;2.70;;;;;;;23.88;38.54;102996.66;5084623;28;20562;-66
2022/11/12 11:23:31;;;;;;;3.35;2.65;;;;;;;23.79;37.11;102985.91;5083553;28;20512;-66
2022/11/12 11:26:11;;;;;;;3.20;2.42;;;;;;;24.03;38.57;102983.59;5083746;28;20361;-66
2022/11/12 11:29:09;;;;;;;2.83;2.47;;;;;;;24.58;39.70;102984.19;5083076;28;20028;-66
2022/11/12 11:31:43;;;;;;;2.88;2.33;;;;;;;24.64;37.02;102988.75;5083834;28;20024;-66
2022/11/12 11:34:32;;;;;;;3.15;2.45;;;;;;;24.46;38.20;102983.59;5084094;28;20884;-66
2022/11/12 11:37:28;;;;;;;3.60;2.35;;;;;;;23.80;39.05;102978.34;5084407;28;20031;-66
2022/11/12 11:39:56;;;;;;;2.78;2.35;;;;;;;23.06;37.80;102973.38;5084070;28;20077;-66
2022/11/12 11:42:42;;;;;;;2.45;2.25;;;;;;;23.24;40.94;102978.66;5083514;28;20027;-66
2022/11/12 11:45:26;;;;;;;2.63;2.40;;;;;;;23.27;38.16;102972.53;5083884;28;20099;-66
2022/11/12 11:48:00;;;;;;;2.58;2.30;;;;;;;23.22;37.72;102972.47;5083866;28;20032;-66
2022/11/12 11:50:34;;;;;;;2.83;2.40;;;;;;;23.42;39.28;102968.16;5083368;28;20031;-66